sensor_id;sensor_type;location;lat;lon;timestamp;temperature;humidity
33139;DHT22;19501;50.948;5.316;2023-12-14T00:00:49;9.00;99.90
33139;DHT22;19501;50.948;5.316;2023-12-14T00:03:15;8.90;99.90
33139;DHT22;19501;50.948;5.316;2023-12-14T00:05:40;9.00;99.90
33139;DHT22;19501;50.948;5.316;2023-12-14T00:08:08;9.00;99.90
33139;DHT22;19501;50.948;5.316;2023-12-14T00:10:34;9.00;99.90
33139;DHT22;19501;50.948;5.316;2023-12-14T00:13:00;8.90;99.90
33139;DHT22;19501;50.948;5.316;2023-12-14T00:15:25;8.90;99.90
33139;DHT22;19501;50.948;5.316;2023-12-14T00:17:51;9.00;99.90
33139;DHT22;19501;50.948;5.316;2023-12-14T00:20:16;9.00;99.90
33139;DHT22;19501;50.948;5.316;2023-12-14T00:22:42;9.10;99.90
33139;DHT22;19501;50.948;5.316;2023-12-14T00:25:08;9.20;99.90
33139;DHT22;19501;50.948;5.316;2023-12-14T00:27:34;9.10;99.90
33139;DHT22;19501;50.948;5.316;2023-12-14T00:29:59;9.20;99.90
33139;DHT22;19501;50.948;5.316;2023-12-14T00:32:25;9.30;99.90
33139;DHT22;19501;50.948;5.316;2023-12-14T00:34:50;9.30;99.90
33139;DHT22;19501;50.948;5.316;2023-12-14T00:37:16;9.30;99.90
33139;DHT22;19501;50.948;5.316;2023-12-14T00:39:42;9.40;99.90
33139;DHT22;19501;50.948;5.316;2023-12-14T00:42:07;9.30;99.90
33139;DHT22;19501;50.948;5.316;2023-12-14T00:44:33;9.20;99.90
33139;DHT22;19501;50.948;5.316;2023-12-14T00:46:59;9.20;99.90
33139;DHT22;19501;50.948;5.316;2023-12-14T00:49:25;9.30;99.90
33139;DHT22;19501;50.948;5.316;2023-12-14T00:51:53;9.20;99.90
33139;DHT22;19501;50.948;5.316;2023-12-14T00:54:18;9.10;99.90
33139;DHT22;19501;50.948;5.316;2023-12-14T00:56:46;9.20;99.90
33139;DHT22;19501;50.948;5.316;2023-12-14T00:59:12;9.20;99.90
33139;DHT22;19501;50.948;5.316;2023-12-14T01:01:38;9.10;99.90
33139;DHT22;19501;50.948;5.316;2023-12-14T01:04:03;9.00;99.90
33139;DHT22;19501;50.948;5.316;2023-12-14T01:06:30;9.00;99.90
33139;DHT22;19501;50.948;5.316;2023-12-14T01:08:55;9.00;99.90
33139;DHT22;19501;50.948;5.316;2023-12-14T01:11:21;9.10;99.90
33139;DHT22;19501;50.948;5.316;2023-12-14T01:13:49;9.00;99.90
33139;DHT22;19501;50.948;5.316;2023-12-14T01:16:14;9.00;99.90
33139;DHT22;19501;50.948;5.316;2023-12-14T01:18:40;9.00;99.90
33139;DHT22;19501;50.948;5.316;2023-12-14T01:21:06;9.00;99.90
33139;DHT22;19501;50.948;5.316;2023-12-14T01:23:31;9.00;99.90
33139;DHT22;19501;50.948;5.316;2023-12-14T01:25:57;8.90;99.90
33139;DHT22;19501;50.948;5.316;2023-12-14T01:28:22;8.80;99.90
33139;DHT22;19501;50.948;5.316;2023-12-14T01:30:48;8.80;99.90
33139;DHT22;19501;50.948;5.316;2023-12-14T01:33:14;8.90;99.90
33139;DHT22;19501;50.948;5.316;2023-12-14T01:35:39;9.00;99.90
33139;DHT22;19501;50.948;5.316;2023-12-14T01:38:05;9.10;99.90
33139;DHT22;19501;50.948;5.316;2023-12-14T01:40:31;9.00;99.90
33139;DHT22;19501;50.948;5.316;2023-12-14T01:43:06;9.10;99.90
33139;DHT22;19501;50.948;5.316;2023-12-14T01:45:33;9.10;99.90
33139;DHT22;19501;50.948;5.316;2023-12-14T01:47:59;9.00;99.90
33139;DHT22;19501;50.948;5.316;2023-12-14T01:50:24;9.00;99.90
33139;DHT22;19501;50.948;5.316;2023-12-14T01:52:50;9.00;99.90
33139;DHT22;19501;50.948;5.316;2023-12-14T01:55:15;9.10;99.90
33139;DHT22;19501;50.948;5.316;2023-12-14T01:57:41;9.10;99.90
33139;DHT22;19501;50.948;5.316;2023-12-14T02:00:07;9.10;99.90
33139;DHT22;19501;50.948;5.316;2023-12-14T02:02:38;9.00;99.90
33139;DHT22;19501;50.948;5.316;2023-12-14T02:05:05;9.00;99.90
33139;DHT22;19501;50.948;5.316;2023-12-14T02:07:31;9.10;99.90
33139;DHT22;19501;50.948;5.316;2023-12-14T02:09:57;9.10;99.90
33139;DHT22;19501;50.948;5.316;2023-12-14T02:12:22;9.20;99.90
33139;DHT22;19501;50.948;5.316;2023-12-14T02:14:48;9.10;99.90
33139;DHT22;19501;50.948;5.316;2023-12-14T02:17:14;9.00;99.90
33139;DHT22;19501;50.948;5.316;2023-12-14T02:19:40;9.00;99.90
33139;DHT22;19501;50.948;5.316;2023-12-14T02:22:06;8.90;99.90
33139;DHT22;19501;50.948;5.316;2023-12-14T02:24:33;8.90;99.90
33139;DHT22;19501;50.948;5.316;2023-12-14T02:27:01;8.80;99.90
33139;DHT22;19501;50.948;5.316;2023-12-14T02:29:28;8.70;99.90
33139;DHT22;19501;50.948;5.316;2023-12-14T02:31:53;8.40;99.90
33139;DHT22;19501;50.948;5.316;2023-12-14T02:34:19;8.40;99.90
33139;DHT22;19501;50.948;5.316;2023-12-14T02:36:46;8.20;99.90
33139;DHT22;19501;50.948;5.316;2023-12-14T02:39:11;8.20;99.90
33139;DHT22;19501;50.948;5.316;2023-12-14T02:41:37;8.20;99.90
33139;DHT22;19501;50.948;5.316;2023-12-14T02:44:03;8.20;99.90
33139;DHT22;19501;50.948;5.316;2023-12-14T02:46:28;8.20;99.90
33139;DHT22;19501;50.948;5.316;2023-12-14T02:48:54;8.10;99.90
33139;DHT22;19501;50.948;5.316;2023-12-14T02:51:19;8.10;99.90
33139;DHT22;19501;50.948;5.316;2023-12-14T02:53:45;8.00;99.90
33139;DHT22;19501;50.948;5.316;2023-12-14T02:56:10;8.10;99.90
33139;DHT22;19501;50.948;5.316;2023-12-14T02:58:36;8.00;99.90
33139;DHT22;19501;50.948;5.316;2023-12-14T03:01:02;7.90;99.90
33139;DHT22;19501;50.948;5.316;2023-12-14T03:03:28;7.90;99.90
33139;DHT22;19501;50.948;5.316;2023-12-14T03:05:54;8.00;99.90
33139;DHT22;19501;50.948;5.316;2023-12-14T03:08:20;7.90;99.90
33139;DHT22;19501;50.948;5.316;2023-12-14T03:10:46;8.00;99.90
33139;DHT22;19501;50.948;5.316;2023-12-14T03:13:11;8.00;99.90
33139;DHT22;19501;50.948;5.316;2023-12-14T03:15:37;8.10;99.90
33139;DHT22;19501;50.948;5.316;2023-12-14T03:18:02;8.00;99.90
33139;DHT22;19501;50.948;5.316;2023-12-14T03:20:29;8.00;99.90
33139;DHT22;19501;50.948;5.316;2023-12-14T03:22:55;8.00;99.90
33139;DHT22;19501;50.948;5.316;2023-12-14T03:25:22;7.90;99.90
33139;DHT22;19501;50.948;5.316;2023-12-14T03:27:48;7.90;99.90
33139;DHT22;19501;50.948;5.316;2023-12-14T03:30:14;7.80;99.90
33139;DHT22;19501;50.948;5.316;2023-12-14T03:32:42;7.80;99.90
33139;DHT22;19501;50.948;5.316;2023-12-14T03:35:10;7.80;99.90
33139;DHT22;19501;50.948;5.316;2023-12-14T03:37:35;7.70;99.90
33139;DHT22;19501;50.948;5.316;2023-12-14T03:40:01;7.80;99.90
33139;DHT22;19501;50.948;5.316;2023-12-14T03:42:27;7.80;99.90
33139;DHT22;19501;50.948;5.316;2023-12-14T03:44:53;7.80;99.90
33139;DHT22;19501;50.948;5.316;2023-12-14T03:47:18;7.80;99.90
33139;DHT22;19501;50.948;5.316;2023-12-14T03:49:44;7.90;99.90
33139;DHT22;19501;50.948;5.316;2023-12-14T03:52:10;7.90;99.90
33139;DHT22;19501;50.948;5.316;2023-12-14T03:54:35;7.90;99.90
33139;DHT22;19501;50.948;5.316;2023-12-14T03:57:01;7.80;99.90
33139;DHT22;19501;50.948;5.316;2023-12-14T03:59:26;7.90;99.90
33139;DHT22;19501;50.948;5.316;2023-12-14T04:01:52;7.80;99.90
33139;DHT22;19501;50.948;5.316;2023-12-14T04:04:18;7.80;99.90
33139;DHT22;19501;50.948;5.316;2023-12-14T04:06:43;7.80;99.90
33139;DHT22;19501;50.948;5.316;2023-12-14T04:09:11;7.80;99.90
33139;DHT22;19501;50.948;5.316;2023-12-14T04:11:37;7.80;99.90
33139;DHT22;19501;50.948;5.316;2023-12-14T04:14:02;7.70;99.90
33139;DHT22;19501;50.948;5.316;2023-12-14T04:16:28;7.60;99.90
33139;DHT22;19501;50.948;5.316;2023-12-14T04:18:53;7.60;99.90
33139;DHT22;19501;50.948;5.316;2023-12-14T04:21:19;7.50;99.90
33139;DHT22;19501;50.948;5.316;2023-12-14T04:23:45;7.40;99.90
33139;DHT22;19501;50.948;5.316;2023-12-14T04:26:11;7.30;99.90
33139;DHT22;19501;50.948;5.316;2023-12-14T04:28:36;7.30;99.90
33139;DHT22;19501;50.948;5.316;2023-12-14T04:31:02;7.20;99.90
33139;DHT22;19501;50.948;5.316;2023-12-14T04:33:28;7.30;99.90
33139;DHT22;19501;50.948;5.316;2023-12-14T04:35:53;7.30;99.90
33139;DHT22;19501;50.948;5.316;2023-12-14T04:38:19;7.20;99.90
33139;DHT22;19501;50.948;5.316;2023-12-14T04:40:45;7.30;99.90
33139;DHT22;19501;50.948;5.316;2023-12-14T04:43:10;7.20;99.90
33139;DHT22;19501;50.948;5.316;2023-12-14T04:45:36;7.30;99.90
33139;DHT22;19501;50.948;5.316;2023-12-14T04:48:01;7.30;99.90
33139;DHT22;19501;50.948;5.316;2023-12-14T04:50:27;7.40;99.90
33139;DHT22;19501;50.948;5.316;2023-12-14T04:52:53;7.40;99.90
33139;DHT22;19501;50.948;5.316;2023-12-14T04:55:18;7.40;99.90
33139;DHT22;19501;50.948;5.316;2023-12-14T04:57:44;7.40;99.90
33139;DHT22;19501;50.948;5.316;2023-12-14T05:00:12;7.40;99.90
33139;DHT22;19501;50.948;5.316;2023-12-14T05:02:38;7.40;99.90
33139;DHT22;19501;50.948;5.316;2023-12-14T05:05:04;7.40;99.90
33139;DHT22;19501;50.948;5.316;2023-12-14T05:07:30;7.50;99.90
33139;DHT22;19501;50.948;5.316;2023-12-14T05:09:56;7.50;99.90
33139;DHT22;19501;50.948;5.316;2023-12-14T05:12:22;7.40;99.90
33139;DHT22;19501;50.948;5.316;2023-12-14T05:14:47;7.30;99.90
33139;DHT22;19501;50.948;5.316;2023-12-14T05:17:15;7.30;99.90
33139;DHT22;19501;50.948;5.316;2023-12-14T05:19:41;7.20;99.90
33139;DHT22;19501;50.948;5.316;2023-12-14T05:22:06;7.10;99.90
33139;DHT22;19501;50.948;5.316;2023-12-14T05:24:32;7.20;99.90
33139;DHT22;19501;50.948;5.316;2023-12-14T05:26:57;7.20;99.90
33139;DHT22;19501;50.948;5.316;2023-12-14T05:29:23;7.10;99.90
33139;DHT22;19501;50.948;5.316;2023-12-14T05:31:49;7.10;99.90
33139;DHT22;19501;50.948;5.316;2023-12-14T05:34:15;7.00;99.90
33139;DHT22;19501;50.948;5.316;2023-12-14T05:36:41;7.10;99.90
33139;DHT22;19501;50.948;5.316;2023-12-14T05:39:07;7.10;99.90
33139;DHT22;19501;50.948;5.316;2023-12-14T05:41:32;7.20;99.90
33139;DHT22;19501;50.948;5.316;2023-12-14T05:43:58;7.20;99.90
33139;DHT22;19501;50.948;5.316;2023-12-14T05:46:24;7.10;99.90
33139;DHT22;19501;50.948;5.316;2023-12-14T05:48:50;7.10;99.90
33139;DHT22;19501;50.948;5.316;2023-12-14T05:53:53;7.10;99.90
33139;DHT22;19501;50.948;5.316;2023-12-14T05:56:19;7.10;99.90
33139;DHT22;19501;50.948;5.316;2023-12-14T05:58:45;7.00;99.90
33139;DHT22;19501;50.948;5.316;2023-12-14T06:01:13;6.90;99.90
33139;DHT22;19501;50.948;5.316;2023-12-14T06:03:38;7.00;99.90
33139;DHT22;19501;50.948;5.316;2023-12-14T06:06:04;6.90;99.90
33139;DHT22;19501;50.948;5.316;2023-12-14T06:08:30;6.90;99.90
33139;DHT22;19501;50.948;5.316;2023-12-14T06:10:55;6.90;99.90
33139;DHT22;19501;50.948;5.316;2023-12-14T06:13:21;6.90;99.90
33139;DHT22;19501;50.948;5.316;2023-12-14T06:15:47;6.90;99.90
33139;DHT22;19501;50.948;5.316;2023-12-14T06:18:12;6.80;99.90
33139;DHT22;19501;50.948;5.316;2023-12-14T06:20:39;6.70;99.90
33139;DHT22;19501;50.948;5.316;2023-12-14T06:23:06;6.80;99.90
33139;DHT22;19501;50.948;5.316;2023-12-14T06:25:31;6.90;99.90
33139;DHT22;19501;50.948;5.316;2023-12-14T06:27:57;6.80;99.90
33139;DHT22;19501;50.948;5.316;2023-12-14T06:30:23;6.80;99.90
33139;DHT22;19501;50.948;5.316;2023-12-14T06:32:49;6.80;99.90
33139;DHT22;19501;50.948;5.316;2023-12-14T06:35:15;6.80;99.90
33139;DHT22;19501;50.948;5.316;2023-12-14T06:37:41;6.70;99.90
33139;DHT22;19501;50.948;5.316;2023-12-14T06:40:08;6.80;99.90
33139;DHT22;19501;50.948;5.316;2023-12-14T06:42:34;6.80;99.90
33139;DHT22;19501;50.948;5.316;2023-12-14T06:45:02;6.70;99.90
33139;DHT22;19501;50.948;5.316;2023-12-14T06:47:28;6.80;99.90
33139;DHT22;19501;50.948;5.316;2023-12-14T06:49:54;6.90;99.90
33139;DHT22;19501;50.948;5.316;2023-12-14T06:52:21;7.00;99.90
33139;DHT22;19501;50.948;5.316;2023-12-14T06:54:49;6.80;99.90
33139;DHT22;19501;50.948;5.316;2023-12-14T06:57:15;6.70;99.90
33139;DHT22;19501;50.948;5.316;2023-12-14T06:59:40;6.70;99.90
33139;DHT22;19501;50.948;5.316;2023-12-14T07:02:06;6.70;99.90
33139;DHT22;19501;50.948;5.316;2023-12-14T07:04:32;6.80;99.90
33139;DHT22;19501;50.948;5.316;2023-12-14T07:07:01;6.80;99.90
33139;DHT22;19501;50.948;5.316;2023-12-14T07:09:26;6.90;99.90
33139;DHT22;19501;50.948;5.316;2023-12-14T07:11:53;6.90;99.90
33139;DHT22;19501;50.948;5.316;2023-12-14T07:14:19;6.80;99.90
33139;DHT22;19501;50.948;5.316;2023-12-14T07:16:44;6.80;99.90
33139;DHT22;19501;50.948;5.316;2023-12-14T07:19:10;6.80;99.90
33139;DHT22;19501;50.948;5.316;2023-12-14T07:21:38;6.70;99.90
33139;DHT22;19501;50.948;5.316;2023-12-14T07:24:04;6.70;99.90
33139;DHT22;19501;50.948;5.316;2023-12-14T07:26:30;6.70;99.90
33139;DHT22;19501;50.948;5.316;2023-12-14T07:28:55;6.70;99.90
33139;DHT22;19501;50.948;5.316;2023-12-14T07:31:21;6.80;99.90
33139;DHT22;19501;50.948;5.316;2023-12-14T07:33:47;6.90;99.90
33139;DHT22;19501;50.948;5.316;2023-12-14T07:36:12;7.00;99.90
33139;DHT22;19501;50.948;5.316;2023-12-14T07:38:38;7.00;99.90
33139;DHT22;19501;50.948;5.316;2023-12-14T07:41:04;6.90;99.90
33139;DHT22;19501;50.948;5.316;2023-12-14T07:43:32;6.80;99.90
33139;DHT22;19501;50.948;5.316;2023-12-14T07:45:58;6.80;99.90
33139;DHT22;19501;50.948;5.316;2023-12-14T07:48:24;6.90;99.90
33139;DHT22;19501;50.948;5.316;2023-12-14T07:50:49;6.80;99.90
33139;DHT22;19501;50.948;5.316;2023-12-14T07:53:15;6.80;99.90
33139;DHT22;19501;50.948;5.316;2023-12-14T07:55:40;6.90;99.90
33139;DHT22;19501;50.948;5.316;2023-12-14T07:58:07;6.80;99.90
33139;DHT22;19501;50.948;5.316;2023-12-14T08:00:32;6.90;99.90
33139;DHT22;19501;50.948;5.316;2023-12-14T08:02:58;6.80;99.90
33139;DHT22;19501;50.948;5.316;2023-12-14T08:05:24;6.80;99.90
33139;DHT22;19501;50.948;5.316;2023-12-14T08:07:50;6.80;99.90
33139;DHT22;19501;50.948;5.316;2023-12-14T08:10:18;6.80;99.90
33139;DHT22;19501;50.948;5.316;2023-12-14T08:12:44;6.80;99.90
33139;DHT22;19501;50.948;5.316;2023-12-14T08:15:09;6.70;99.90
33139;DHT22;19501;50.948;5.316;2023-12-14T08:17:35;6.60;99.90
33139;DHT22;19501;50.948;5.316;2023-12-14T08:20:01;6.60;99.90
33139;DHT22;19501;50.948;5.316;2023-12-14T08:22:27;6.60;99.90
33139;DHT22;19501;50.948;5.316;2023-12-14T08:24:53;6.50;99.90
33139;DHT22;19501;50.948;5.316;2023-12-14T08:27:18;6.50;99.90
33139;DHT22;19501;50.948;5.316;2023-12-14T08:29:44;6.40;99.90
33139;DHT22;19501;50.948;5.316;2023-12-14T08:32:11;6.50;99.90
33139;DHT22;19501;50.948;5.316;2023-12-14T08:34:36;6.50;99.90
33139;DHT22;19501;50.948;5.316;2023-12-14T08:37:02;6.50;99.90
33139;DHT22;19501;50.948;5.316;2023-12-14T08:39:28;6.50;99.90
33139;DHT22;19501;50.948;5.316;2023-12-14T08:41:54;6.60;99.90
33139;DHT22;19501;50.948;5.316;2023-12-14T08:44:19;6.50;99.90
33139;DHT22;19501;50.948;5.316;2023-12-14T08:46:46;6.50;99.90
33139;DHT22;19501;50.948;5.316;2023-12-14T08:49:12;6.60;99.90
33139;DHT22;19501;50.948;5.316;2023-12-14T08:51:39;6.60;99.90
33139;DHT22;19501;50.948;5.316;2023-12-14T08:54:05;6.80;99.90
33139;DHT22;19501;50.948;5.316;2023-12-14T08:56:34;6.70;99.90
33139;DHT22;19501;50.948;5.316;2023-12-14T08:58:59;6.70;99.90
33139;DHT22;19501;50.948;5.316;2023-12-14T09:01:29;6.90;99.90
33139;DHT22;19501;50.948;5.316;2023-12-14T09:03:54;6.80;99.90
33139;DHT22;19501;50.948;5.316;2023-12-14T09:06:22;6.90;99.90
33139;DHT22;19501;50.948;5.316;2023-12-14T09:08:48;7.10;99.90
33139;DHT22;19501;50.948;5.316;2023-12-14T09:11:14;7.00;99.90
33139;DHT22;19501;50.948;5.316;2023-12-14T09:13:41;7.00;99.90
33139;DHT22;19501;50.948;5.316;2023-12-14T09:16:07;7.00;99.90
33139;DHT22;19501;50.948;5.316;2023-12-14T09:18:33;7.10;99.90
33139;DHT22;19501;50.948;5.316;2023-12-14T09:20:59;7.40;99.90
33139;DHT22;19501;50.948;5.316;2023-12-14T09:23:25;7.50;99.90
33139;DHT22;19501;50.948;5.316;2023-12-14T09:25:53;7.50;99.90
33139;DHT22;19501;50.948;5.316;2023-12-14T09:28:19;7.40;99.90
33139;DHT22;19501;50.948;5.316;2023-12-14T09:30:44;7.40;99.90
33139;DHT22;19501;50.948;5.316;2023-12-14T09:33:10;7.40;99.90
33139;DHT22;19501;50.948;5.316;2023-12-14T09:35:36;7.40;99.90
33139;DHT22;19501;50.948;5.316;2023-12-14T09:38:03;7.50;99.90
33139;DHT22;19501;50.948;5.316;2023-12-14T09:40:29;7.60;99.90
33139;DHT22;19501;50.948;5.316;2023-12-14T09:42:55;7.50;99.90
33139;DHT22;19501;50.948;5.316;2023-12-14T09:45:24;7.60;99.90
33139;DHT22;19501;50.948;5.316;2023-12-14T09:47:56;7.60;99.90
33139;DHT22;19501;50.948;5.316;2023-12-14T09:50:23;7.60;99.90
33139;DHT22;19501;50.948;5.316;2023-12-14T09:52:48;7.80;99.90
33139;DHT22;19501;50.948;5.316;2023-12-14T09:55:15;7.80;99.90
33139;DHT22;19501;50.948;5.316;2023-12-14T09:57:41;7.90;99.90
33139;DHT22;19501;50.948;5.316;2023-12-14T10:00:07;7.70;99.90
33139;DHT22;19501;50.948;5.316;2023-12-14T10:02:36;7.50;99.90
33139;DHT22;19501;50.948;5.316;2023-12-14T10:05:02;7.30;99.90
33139;DHT22;19501;50.948;5.316;2023-12-14T10:07:30;7.30;99.90
33139;DHT22;19501;50.948;5.316;2023-12-14T10:10:12;7.20;99.90
33139;DHT22;19501;50.948;5.316;2023-12-14T10:12:51;7.10;99.90
33139;DHT22;19501;50.948;5.316;2023-12-14T10:15:18;7.10;99.90
33139;DHT22;19501;50.948;5.316;2023-12-14T10:17:44;7.10;99.90
33139;DHT22;19501;50.948;5.316;2023-12-14T10:20:19;7.10;99.90
33139;DHT22;19501;50.948;5.316;2023-12-14T10:22:49;7.00;99.90
33139;DHT22;19501;50.948;5.316;2023-12-14T10:25:17;7.10;99.90
33139;DHT22;19501;50.948;5.316;2023-12-14T10:27:51;7.10;99.90
33139;DHT22;19501;50.948;5.316;2023-12-14T10:30:20;7.00;99.90
33139;DHT22;19501;50.948;5.316;2023-12-14T10:32:48;6.90;99.90
33139;DHT22;19501;50.948;5.316;2023-12-14T10:35:15;6.90;99.90
33139;DHT22;19501;50.948;5.316;2023-12-14T10:37:46;6.90;99.90
33139;DHT22;19501;50.948;5.316;2023-12-14T10:40:14;7.00;99.90
33139;DHT22;19501;50.948;5.316;2023-12-14T10:42:43;7.10;99.90
33139;DHT22;19501;50.948;5.316;2023-12-14T10:45:11;7.20;99.90
33139;DHT22;19501;50.948;5.316;2023-12-14T10:47:39;7.30;99.90
33139;DHT22;19501;50.948;5.316;2023-12-14T10:50:10;7.50;99.90
33139;DHT22;19501;50.948;5.316;2023-12-14T10:52:40;7.50;99.90
33139;DHT22;19501;50.948;5.316;2023-12-14T10:55:11;7.50;99.90
33139;DHT22;19501;50.948;5.316;2023-12-14T10:57:38;7.60;99.90
33139;DHT22;19501;50.948;5.316;2023-12-14T11:00:05;7.80;99.90
33139;DHT22;19501;50.948;5.316;2023-12-14T11:02:40;7.90;99.90
33139;DHT22;19501;50.948;5.316;2023-12-14T11:05:10;8.00;99.90
33139;DHT22;19501;50.948;5.316;2023-12-14T11:07:52;8.10;99.90
33139;DHT22;19501;50.948;5.316;2023-12-14T11:10:27;8.00;99.90
33139;DHT22;19501;50.948;5.316;2023-12-14T11:13:05;7.80;99.90
33139;DHT22;19501;50.948;5.316;2023-12-14T11:15:34;7.80;99.90
33139;DHT22;19501;50.948;5.316;2023-12-14T11:23:10;7.80;99.90
33139;DHT22;19501;50.948;5.316;2023-12-14T11:25:41;7.80;99.90
33139;DHT22;19501;50.948;5.316;2023-12-14T11:28:07;7.80;99.90
33139;DHT22;19501;50.948;5.316;2023-12-14T11:30:36;7.80;99.90
33139;DHT22;19501;50.948;5.316;2023-12-14T11:33:03;8.00;99.90
33139;DHT22;19501;50.948;5.316;2023-12-14T11:35:29;7.80;99.90
33139;DHT22;19501;50.948;5.316;2023-12-14T11:37:55;7.60;99.90
33139;DHT22;19501;50.948;5.316;2023-12-14T11:40:23;7.50;99.90
33139;DHT22;19501;50.948;5.316;2023-12-14T11:43:02;7.70;99.90
33139;DHT22;19501;50.948;5.316;2023-12-14T11:45:40;7.60;99.90
33139;DHT22;19501;50.948;5.316;2023-12-14T11:48:09;7.40;99.90
33139;DHT22;19501;50.948;5.316;2023-12-14T11:50:37;7.40;99.90
33139;DHT22;19501;50.948;5.316;2023-12-14T11:53:04;7.40;99.90
33139;DHT22;19501;50.948;5.316;2023-12-14T11:55:30;7.50;99.90
33139;DHT22;19501;50.948;5.316;2023-12-14T11:57:58;7.50;99.90
33139;DHT22;19501;50.948;5.316;2023-12-14T12:00:28;7.60;99.90
33139;DHT22;19501;50.948;5.316;2023-12-14T12:03:19;7.60;99.90
33139;DHT22;19501;50.948;5.316;2023-12-14T12:05:47;7.40;99.90
33139;DHT22;19501;50.948;5.316;2023-12-14T12:08:14;7.40;99.90
33139;DHT22;19501;50.948;5.316;2023-12-14T12:10:42;7.50;99.90
33139;DHT22;19501;50.948;5.316;2023-12-14T12:13:18;7.70;99.90
33139;DHT22;19501;50.948;5.316;2023-12-14T12:15:44;7.70;99.90
33139;DHT22;19501;50.948;5.316;2023-12-14T12:18:12;7.70;99.90
33139;DHT22;19501;50.948;5.316;2023-12-14T12:20:38;7.60;99.90
33139;DHT22;19501;50.948;5.316;2023-12-14T12:23:04;7.60;99.90
33139;DHT22;19501;50.948;5.316;2023-12-14T12:25:30;7.60;99.90
33139;DHT22;19501;50.948;5.316;2023-12-14T12:27:57;7.60;99.90
33139;DHT22;19501;50.948;5.316;2023-12-14T12:30:23;7.70;99.90
33139;DHT22;19501;50.948;5.316;2023-12-14T12:32:49;7.80;99.90
33139;DHT22;19501;50.948;5.316;2023-12-14T12:35:19;7.90;99.90
33139;DHT22;19501;50.948;5.316;2023-12-14T12:37:45;8.00;99.90
33139;DHT22;19501;50.948;5.316;2023-12-14T12:40:11;8.10;99.90
33139;DHT22;19501;50.948;5.316;2023-12-14T12:42:37;8.30;99.90
33139;DHT22;19501;50.948;5.316;2023-12-14T12:45:03;8.20;99.90
33139;DHT22;19501;50.948;5.316;2023-12-14T12:47:30;8.00;99.90
33139;DHT22;19501;50.948;5.316;2023-12-14T12:49:55;8.10;99.90
33139;DHT22;19501;50.948;5.316;2023-12-14T12:52:21;7.90;99.90
33139;DHT22;19501;50.948;5.316;2023-12-14T12:54:46;7.90;99.90
33139;DHT22;19501;50.948;5.316;2023-12-14T12:57:12;8.00;99.90
33139;DHT22;19501;50.948;5.316;2023-12-14T12:59:38;8.00;99.90
33139;DHT22;19501;50.948;5.316;2023-12-14T13:02:04;7.90;99.90
33139;DHT22;19501;50.948;5.316;2023-12-14T13:04:30;7.70;99.90
33139;DHT22;19501;50.948;5.316;2023-12-14T13:06:57;7.70;99.90
33139;DHT22;19501;50.948;5.316;2023-12-14T13:09:23;7.70;99.90
33139;DHT22;19501;50.948;5.316;2023-12-14T13:11:50;7.60;99.90
33139;DHT22;19501;50.948;5.316;2023-12-14T13:14:16;7.70;99.90
33139;DHT22;19501;50.948;5.316;2023-12-14T13:16:43;7.60;99.90
33139;DHT22;19501;50.948;5.316;2023-12-14T13:19:09;7.80;99.90
33139;DHT22;19501;50.948;5.316;2023-12-14T13:21:35;7.90;99.90
33139;DHT22;19501;50.948;5.316;2023-12-14T13:24:01;8.00;99.90
33139;DHT22;19501;50.948;5.316;2023-12-14T13:26:27;7.90;99.90
33139;DHT22;19501;50.948;5.316;2023-12-14T13:28:53;7.90;99.90
33139;DHT22;19501;50.948;5.316;2023-12-14T13:31:19;7.80;99.90
33139;DHT22;19501;50.948;5.316;2023-12-14T13:33:48;8.00;99.90
33139;DHT22;19501;50.948;5.316;2023-12-14T13:36:16;8.00;99.90
33139;DHT22;19501;50.948;5.316;2023-12-14T13:38:42;7.90;99.90
33139;DHT22;19501;50.948;5.316;2023-12-14T13:41:08;8.10;99.90
33139;DHT22;19501;50.948;5.316;2023-12-14T13:43:34;8.10;99.90
33139;DHT22;19501;50.948;5.316;2023-12-14T13:46:00;8.10;99.90
33139;DHT22;19501;50.948;5.316;2023-12-14T13:48:26;8.40;99.90
33139;DHT22;19501;50.948;5.316;2023-12-14T13:50:53;8.40;99.90
33139;DHT22;19501;50.948;5.316;2023-12-14T13:53:19;8.20;99.90
33139;DHT22;19501;50.948;5.316;2023-12-14T13:55:46;8.20;99.90
33139;DHT22;19501;50.948;5.316;2023-12-14T13:58:12;8.10;99.90
33139;DHT22;19501;50.948;5.316;2023-12-14T14:00:38;8.10;99.90
33139;DHT22;19501;50.948;5.316;2023-12-14T14:03:04;8.20;99.90
33139;DHT22;19501;50.948;5.316;2023-12-14T14:05:31;8.20;99.90
33139;DHT22;19501;50.948;5.316;2023-12-14T14:07:57;8.10;99.90
33139;DHT22;19501;50.948;5.316;2023-12-14T14:10:25;8.30;99.90
33139;DHT22;19501;50.948;5.316;2023-12-14T14:12:54;8.40;99.90
33139;DHT22;19501;50.948;5.316;2023-12-14T14:15:20;8.30;99.90
33139;DHT22;19501;50.948;5.316;2023-12-14T14:17:46;8.10;99.90
33139;DHT22;19501;50.948;5.316;2023-12-14T14:20:17;8.20;99.90
33139;DHT22;19501;50.948;5.316;2023-12-14T14:22:43;8.30;99.90
33139;DHT22;19501;50.948;5.316;2023-12-14T14:25:09;8.20;99.90
33139;DHT22;19501;50.948;5.316;2023-12-14T14:27:35;8.20;99.90
33139;DHT22;19501;50.948;5.316;2023-12-14T14:30:02;8.10;99.90
33139;DHT22;19501;50.948;5.316;2023-12-14T14:32:28;8.00;99.90
33139;DHT22;19501;50.948;5.316;2023-12-14T14:34:56;8.10;99.90
33139;DHT22;19501;50.948;5.316;2023-12-14T14:37:23;8.10;99.90
33139;DHT22;19501;50.948;5.316;2023-12-14T14:39:49;8.30;99.90
33139;DHT22;19501;50.948;5.316;2023-12-14T14:42:15;8.30;99.90
33139;DHT22;19501;50.948;5.316;2023-12-14T14:44:41;8.30;99.90
33139;DHT22;19501;50.948;5.316;2023-12-14T14:47:07;8.30;99.90
33139;DHT22;19501;50.948;5.316;2023-12-14T14:49:33;8.10;99.90
33139;DHT22;19501;50.948;5.316;2023-12-14T14:51:58;8.20;99.90
33139;DHT22;19501;50.948;5.316;2023-12-14T14:54:24;8.10;99.90
33139;DHT22;19501;50.948;5.316;2023-12-14T14:56:49;8.00;99.90
33139;DHT22;19501;50.948;5.316;2023-12-14T14:59:15;7.90;99.90
33139;DHT22;19501;50.948;5.316;2023-12-14T15:01:41;8.00;99.90
33139;DHT22;19501;50.948;5.316;2023-12-14T15:04:08;8.10;99.90
33139;DHT22;19501;50.948;5.316;2023-12-14T15:06:33;8.00;99.90
33139;DHT22;19501;50.948;5.316;2023-12-14T15:09:00;7.90;99.90
33139;DHT22;19501;50.948;5.316;2023-12-14T15:11:25;7.90;99.90
33139;DHT22;19501;50.948;5.316;2023-12-14T15:13:55;8.00;99.90
33139;DHT22;19501;50.948;5.316;2023-12-14T15:16:21;8.20;99.90
33139;DHT22;19501;50.948;5.316;2023-12-14T15:18:50;8.20;99.90
33139;DHT22;19501;50.948;5.316;2023-12-14T15:21:16;8.30;99.90
33139;DHT22;19501;50.948;5.316;2023-12-14T15:23:42;8.40;99.90
33139;DHT22;19501;50.948;5.316;2023-12-14T15:26:09;8.40;99.90
33139;DHT22;19501;50.948;5.316;2023-12-14T15:28:37;8.40;99.90
33139;DHT22;19501;50.948;5.316;2023-12-14T15:31:03;8.40;99.90
33139;DHT22;19501;50.948;5.316;2023-12-14T15:33:29;8.20;99.90
33139;DHT22;19501;50.948;5.316;2023-12-14T15:35:57;8.20;99.90
33139;DHT22;19501;50.948;5.316;2023-12-14T15:38:22;8.10;99.90
33139;DHT22;19501;50.948;5.316;2023-12-14T15:40:48;8.20;99.90
33139;DHT22;19501;50.948;5.316;2023-12-14T15:43:14;8.40;99.90
33139;DHT22;19501;50.948;5.316;2023-12-14T15:45:40;8.50;99.90
33139;DHT22;19501;50.948;5.316;2023-12-14T15:48:05;8.00;99.90